createdAt,value
2023-02-16T00:04:13.004Z,30.00
2023-02-16T00:09:14.520Z,30.63
2023-02-16T00:14:16.321Z,29.20
2023-02-16T00:19:29.003Z,30.10
2023-02-16T00:24:31.117Z,29.77
2023-02-16T00:29:33.866Z,30.05
2023-02-16T00:34:36.676Z,29.10
2023-02-16T00:39:38.779Z,30.98
2023-02-16T00:44:41.528Z,28.77
2023-02-16T00:49:42.979Z,30.45
2023-02-16T00:54:44.401Z,29.55
2023-02-16T00:59:46.972Z,30.77
2023-02-16T01:04:48.473Z,32.97
2023-02-16T01:10:08.740Z,32.10
2023-02-16T01:20:18.957Z,30.38
2023-02-16T01:25:20.488Z,29.67
2023-02-16T01:30:23.071Z,32.67
2023-02-16T01:35:28.252Z,32.17
2023-02-16T01:40:32.696Z,30.85
2023-02-16T01:45:35.753Z,31.23
2023-02-16T01:50:47.493Z,29.63
2023-02-16T01:55:51.881Z,30.90
2023-02-16T02:00:53.324Z,32.05
2023-02-16T02:05:54.763Z,31.60
2023-02-16T02:10:56.196Z,32.25
2023-02-16T02:15:58.371Z,32.25
2023-02-16T02:21:37.303Z,30.95
2023-02-16T02:26:56.913Z,33.08
2023-02-16T02:32:04.148Z,32.33
2023-02-16T02:37:05.588Z,31.98
2023-02-16T02:42:25.284Z,33.53
2023-02-16T02:47:40.344Z,34.05
2023-02-16T02:52:41.727Z,33.50
2023-02-16T02:58:06.297Z,34.08
2023-02-16T03:03:14.687Z,34.85
2023-02-16T03:08:17.687Z,35.53
2023-02-16T03:13:23.123Z,31.88
2023-02-16T03:18:44.647Z,32.15
2023-02-16T03:24:06.010Z,33.33
2023-02-16T03:29:22.042Z,33.65
2023-02-16T03:34:24.336Z,33.70
2023-02-16T03:39:26.722Z,35.35
2023-02-16T03:44:28.235Z,33.97
2023-02-16T03:49:29.695Z,33.25
2023-02-16T03:54:31.094Z,35.38
2023-02-16T03:59:32.528Z,33.13
2023-02-16T04:04:33.907Z,34.03
2023-02-16T04:09:35.322Z,33.97
2023-02-16T04:14:36.680Z,32.67
2023-02-16T04:19:38.113Z,35.55
2023-02-16T04:24:39.499Z,34.60
2023-02-16T04:29:40.914Z,34.20
2023-02-16T04:34:42.358Z,34.40
2023-02-16T04:39:44.099Z,32.00
2023-02-16T04:44:45.492Z,33.33
2023-02-16T04:49:49.182Z,33.05
2023-02-16T04:54:51.579Z,32.60
2023-02-16T04:59:53.090Z,32.42
2023-02-16T05:04:54.541Z,31.63
2023-02-16T05:09:55.970Z,31.88
2023-02-16T05:14:57.364Z,32.55
2023-02-16T05:19:59.934Z,32.80
2023-02-16T05:25:01.813Z,31.85
2023-02-16T05:30:03.639Z,34.00
2023-02-16T05:35:05.211Z,34.53
2023-02-16T05:40:07.503Z,34.60
2023-02-16T05:45:09.249Z,31.42
2023-02-16T05:50:10.878Z,32.53
2023-02-16T05:55:12.330Z,34.30
2023-02-16T06:00:14.141Z,33.78
2023-02-16T06:05:15.546Z,33.22
2023-02-16T06:10:17.261Z,33.25
2023-02-16T06:15:18.736Z,33.35
2023-02-16T06:20:20.646Z,34.75
2023-02-16T06:25:22.046Z,32.55
2023-02-16T06:30:24.469Z,31.95
2023-02-16T06:35:25.954Z,32.20
2023-02-16T06:40:27.356Z,34.22
2023-02-16T06:45:28.757Z,32.85
2023-02-16T06:50:30.152Z,32.50
2023-02-16T06:55:36.213Z,32.55
2023-02-16T07:00:37.842Z,32.35
2023-02-16T07:05:39.280Z,31.70
2023-02-16T07:10:50.084Z,32.97
2023-02-16T07:15:52.047Z,32.00
2023-02-16T07:20:53.876Z,32.63
2023-02-16T07:25:55.267Z,30.30
2023-02-16T07:30:56.757Z,33.22
2023-02-16T07:35:58.215Z,32.20
2023-02-16T07:41:00.047Z,32.40
2023-02-16T07:46:01.947Z,32.33
2023-02-16T07:51:04.009Z,33.30
2023-02-16T07:56:05.827Z,31.88
2023-02-16T08:01:08.955Z,32.58
2023-02-16T08:06:10.714Z,30.95
2023-02-16T08:11:13.476Z,31.17
2023-02-16T08:16:16.568Z,30.52
2023-02-16T08:21:19.342Z,29.67
2023-02-16T08:26:21.890Z,30.75
2023-02-16T08:31:25.080Z,31.55
2023-02-16T08:36:29.512Z,30.27
2023-02-16T08:41:32.494Z,30.17
2023-02-16T08:46:34.411Z,29.23
2023-02-16T08:51:38.171Z,29.50
2023-02-16T08:56:39.590Z,30.55
2023-02-16T09:01:41.612Z,29.77
2023-02-16T09:06:44.435Z,31.05
2023-02-16T09:11:46.236Z,30.05
2023-02-16T09:16:48.071Z,32.55
2023-02-16T09:21:51.828Z,29.73
2023-02-16T09:26:53.249Z,31.80
2023-02-16T09:31:54.871Z,30.83
2023-02-16T09:36:56.601Z,30.83
2023-02-16T09:42:04.955Z,30.75
2023-02-16T09:47:11.264Z,31.02
2023-02-16T09:52:33.017Z,32.95
2023-02-16T09:57:56.808Z,31.17
2023-02-16T10:02:58.303Z,33.28
2023-02-16T10:08:00.191Z,32.22
2023-02-16T10:13:09.361Z,32.50
2023-02-16T10:18:26.303Z,31.90
2023-02-16T10:23:39.745Z,32.60
2023-02-16T10:28:41.260Z,34.40
2023-02-16T10:33:57.928Z,32.22
2023-02-16T10:39:19.693Z,32.83
2023-02-16T10:44:21.323Z,32.28
2023-02-16T10:49:24.458Z,33.20
2023-02-16T10:54:27.374Z,33.03
2023-02-16T10:59:37.185Z,33.90
2023-02-16T11:09:40.997Z,33.97
2023-02-16T11:14:48.496Z,34.15
2023-02-16T11:19:55.386Z,34.47
2023-02-16T11:24:59.374Z,33.97
2023-02-16T11:30:22.568Z,36.33
2023-02-16T11:35:24.187Z,33.47
2023-02-16T11:40:30.772Z,33.95
2023-02-16T11:45:32.143Z,34.40
2023-02-16T11:50:38.453Z,39.53
2023-02-16T11:55:43.204Z,35.63
2023-02-16T12:01:03.860Z,39.72
2023-02-16T12:06:43.888Z,35.85
2023-02-16T12:11:51.762Z,36.95
2023-02-16T12:17:12.772Z,38.38
2023-02-16T12:22:14.209Z,35.13
2023-02-16T12:27:24.577Z,36.33
2023-02-16T12:32:34.866Z,34.70
2023-02-16T12:37:43.484Z,33.88
2023-02-16T12:43:04.181Z,35.30
2023-02-16T12:48:05.553Z,34.25
2023-02-16T12:53:07.214Z,35.60
2023-02-16T12:58:24.006Z,34.45
2023-02-16T13:03:44.678Z,35.58
2023-02-16T13:09:00.743Z,33.30
2023-02-16T13:14:05.693Z,32.97
2023-02-16T13:19:10.826Z,33.00
2023-02-16T13:24:21.141Z,33.13
2023-02-16T13:29:37.574Z,33.22
2023-02-16T13:34:57.975Z,32.92
2023-02-16T13:40:05.147Z,31.08
2023-02-16T13:45:13.734Z,28.88
2023-02-16T13:50:21.088Z,29.52
2023-02-16T13:55:33.664Z,28.83
2023-02-16T14:00:35.139Z,27.42
2023-02-16T14:05:38.714Z,27.98
2023-02-16T14:10:58.833Z,27.02
2023-02-16T14:21:06.405Z,25.60
2023-02-16T14:26:10.217Z,24.63
2023-02-16T14:31:14.155Z,23.58
2023-02-16T14:36:16.906Z,23.23
2023-02-16T14:41:24.371Z,21.95
2023-02-16T14:46:44.773Z,15.63
2023-02-16T14:51:46.186Z,13.25
2023-02-16T14:57:13.729Z,12.48
2023-02-16T15:02:27.231Z,12.85
2023-02-16T15:07:28.971Z,12.60
2023-02-16T15:12:32.809Z,13.95
2023-02-16T15:17:44.928Z,14.05
2023-02-16T15:23:07.457Z,14.00
2023-02-16T15:28:09.022Z,16.45
2023-02-16T15:33:25.746Z,17.60
2023-02-16T15:38:31.834Z,19.48
2023-02-16T15:43:49.453Z,18.45
2023-02-16T15:48:51.008Z,21.00
2023-02-16T15:53:54.778Z,20.75
2023-02-16T15:58:57.831Z,21.83
2023-02-16T16:04:03.395Z,21.77
2023-02-16T16:09:08.248Z,20.58
2023-02-16T16:14:10.281Z,22.85
2023-02-16T16:19:19.233Z,21.35
2023-02-16T16:24:48.637Z,21.80
2023-02-16T16:29:50.065Z,22.33
2023-02-16T16:34:51.822Z,22.38
2023-02-16T16:39:59.128Z,23.38
2023-02-16T16:45:06.986Z,22.25
2023-02-16T16:50:13.104Z,24.73
2023-02-16T16:55:21.533Z,27.98
2023-02-16T17:00:24.959Z,24.63
2023-02-16T17:05:26.363Z,25.10
2023-02-16T17:10:27.855Z,23.30
2023-02-16T17:15:35.232Z,20.77
2023-02-16T17:20:36.731Z,20.42
2023-02-16T17:25:38.303Z,21.35
2023-02-16T17:30:40.177Z,20.33
2023-02-16T17:35:42.537Z,19.95
2023-02-16T17:40:46.422Z,19.60
2023-02-16T17:45:49.461Z,18.77
2023-02-16T17:50:51.318Z,17.65
2023-02-16T17:55:54.800Z,17.63
2023-02-16T18:00:56.407Z,17.25
2023-02-16T18:05:57.904Z,14.15
2023-02-16T18:11:02.167Z,13.20
2023-02-16T18:16:04.561Z,10.70
2023-02-16T18:21:06.557Z,9.00
2023-02-16T18:26:08.165Z,6.95
2023-02-16T18:31:10.376Z,6.45
2023-02-16T18:36:11.912Z,6.38
2023-02-16T18:41:13.477Z,6.78
2023-02-16T18:46:15.108Z,6.60
2023-02-16T18:51:17.506Z,6.10
2023-02-16T18:56:18.943Z,6.50
2023-02-16T19:01:23.481Z,6.35
2023-02-16T19:06:25.262Z,5.47
2023-02-16T19:11:28.236Z,6.80
2023-02-16T19:16:29.672Z,6.35
2023-02-16T19:21:31.205Z,6.13
2023-02-16T19:26:32.823Z,6.78
2023-02-16T19:31:35.582Z,6.63
2023-02-16T19:36:37.080Z,9.93
2023-02-16T19:41:40.320Z,11.02
2023-02-16T19:46:42.036Z,8.98
2023-02-16T19:51:43.904Z,8.32
2023-02-16T19:56:45.415Z,9.20
2023-02-16T20:01:46.934Z,9.38
2023-02-16T20:06:48.977Z,9.30
2023-02-16T20:11:51.181Z,9.90
2023-02-16T20:16:52.658Z,9.70
2023-02-16T20:21:55.371Z,9.65
2023-02-16T20:26:56.891Z,9.45
2023-02-16T20:31:58.862Z,9.05
2023-02-16T20:37:00.431Z,8.63
2023-02-16T20:42:01.889Z,8.13
2023-02-16T20:47:03.624Z,8.02
2023-02-16T20:52:05.276Z,7.85
2023-02-16T20:57:09.528Z,8.05
2023-02-16T21:02:14.582Z,8.98
2023-02-16T21:07:16.105Z,9.13
2023-02-16T21:12:17.545Z,9.02
2023-02-16T21:17:19.485Z,8.73
2023-02-16T21:22:21.307Z,9.38
2023-02-16T21:27:22.699Z,10.15
2023-02-16T21:32:24.137Z,10.60
2023-02-16T21:37:25.630Z,10.90
2023-02-16T21:42:27.059Z,11.57
2023-02-16T21:47:47.254Z,12.73
2023-02-16T21:57:50.128Z,14.55
2023-02-16T22:02:51.546Z,13.88
2023-02-16T22:07:52.978Z,12.77
2023-02-16T22:12:54.939Z,12.85
2023-02-16T22:17:56.367Z,14.15
2023-02-16T22:22:57.836Z,13.25
2023-02-16T22:27:59.301Z,14.15
2023-02-16T22:33:00.755Z,13.82
2023-02-16T22:38:02.740Z,13.25
2023-02-16T22:43:04.139Z,13.82
2023-02-16T22:48:05.590Z,13.00
2023-02-16T22:53:07.356Z,11.95
2023-02-16T22:58:08.853Z,11.35
2023-02-16T23:03:10.336Z,11.40
2023-02-16T23:08:11.926Z,10.65
2023-02-16T23:13:13.364Z,10.18
2023-02-16T23:18:14.880Z,9.73
2023-02-16T23:23:16.379Z,9.68
2023-02-16T23:28:17.880Z,9.55
2023-02-16T23:33:19.282Z,8.82
2023-02-16T23:38:20.879Z,9.35
2023-02-16T23:43:22.308Z,9.98
2023-02-16T23:48:23.810Z,10.20
2023-02-16T23:53:26.096Z,8.52
2023-02-16T23:58:28.382Z,9.10
